createdAt,value
2019-06-25T00:01:16.255Z,6.70
2019-06-25T00:03:43.198Z,4.70
2019-06-25T00:06:11.527Z,5.17
2019-06-25T00:08:38.353Z,5.40
2019-06-25T00:11:05.444Z,4.57
2019-06-25T00:13:32.619Z,4.67
2019-06-25T00:15:59.951Z,8.30
2019-06-25T00:18:27.381Z,5.57
2019-06-25T00:20:55.380Z,5.57
2019-06-25T00:23:22.753Z,4.70
2019-06-25T00:25:50.408Z,5.47
2019-06-25T00:28:17.652Z,4.70
2019-06-25T00:30:45.217Z,4.70
2019-06-25T00:33:12.471Z,4.80
2019-06-25T00:35:39.297Z,5.00
2019-06-25T00:38:06.548Z,4.47
2019-06-25T00:40:34.083Z,4.77
2019-06-25T00:43:01.843Z,5.03
2019-06-25T00:45:29.500Z,4.37
2019-06-25T00:47:57.169Z,6.07
2019-06-25T00:50:24.383Z,4.50
2019-06-25T00:52:51.751Z,6.83
2019-06-25T00:55:18.632Z,4.40
2019-06-25T00:57:46.699Z,4.20
2019-06-25T01:00:15.379Z,4.60
2019-06-25T01:02:52.073Z,5.25
2019-06-25T01:05:20.088Z,4.03
2019-06-25T01:07:47.469Z,4.07
2019-06-25T01:10:14.868Z,4.90
2019-06-25T01:12:43.524Z,5.35
2019-06-25T01:15:13.100Z,4.17
2019-06-25T01:17:39.983Z,4.10
2019-06-25T01:20:09.336Z,4.30
2019-06-25T01:22:37.196Z,4.00
2019-06-25T01:25:05.138Z,5.00
2019-06-25T01:27:33.682Z,5.33
2019-06-25T01:30:01.187Z,4.13
2019-06-25T01:32:28.645Z,5.50
2019-06-25T01:34:56.429Z,4.40
2019-06-25T01:37:24.040Z,4.00
2019-06-25T01:39:51.776Z,3.70
2019-06-25T01:42:19.360Z,4.70
2019-06-25T01:44:47.576Z,4.30
2019-06-25T01:47:15.499Z,5.55
2019-06-25T01:49:43.144Z,7.80
2019-06-25T01:52:10.100Z,4.17
2019-06-25T01:54:37.409Z,6.03
2019-06-25T01:57:04.904Z,4.50
2019-06-25T01:59:32.265Z,4.27
2019-06-25T02:02:00.496Z,5.47
2019-06-25T02:04:28.028Z,3.50
2019-06-25T02:06:54.977Z,3.67
2019-06-25T02:09:22.260Z,6.73
2019-06-25T02:11:49.437Z,6.05
2019-06-25T02:14:16.908Z,4.17
2019-06-25T02:16:43.868Z,6.57
2019-06-25T02:19:12.084Z,3.60
2019-06-25T02:21:40.964Z,4.13
2019-06-25T02:24:07.920Z,4.00
2019-06-25T02:26:35.073Z,3.83
2019-06-25T02:29:02.144Z,4.90
2019-06-25T02:31:30.903Z,7.83
2019-06-25T02:33:58.276Z,4.57
2019-06-25T02:36:25.255Z,4.77
2019-06-25T02:38:52.848Z,4.43
2019-06-25T02:41:20.664Z,5.97
2019-06-25T02:43:48.141Z,4.30
2019-06-25T02:46:15.723Z,6.07
2019-06-25T02:48:44.161Z,4.30
2019-06-25T02:51:12.482Z,4.20
2019-06-25T02:53:40.066Z,3.93
2019-06-25T02:56:07.762Z,4.70
2019-06-25T02:58:34.959Z,4.10
2019-06-25T03:01:02.578Z,4.53
2019-06-25T03:03:29.507Z,4.23
2019-06-25T03:05:57.148Z,4.87
2019-06-25T03:08:24.737Z,4.47
2019-06-25T03:10:51.617Z,5.07
2019-06-25T03:13:19.666Z,4.80
2019-06-25T03:15:47.436Z,6.23
2019-06-25T03:18:15.336Z,4.40
2019-06-25T03:20:42.198Z,4.03
2019-06-25T03:23:09.475Z,5.15
2019-06-25T03:25:36.520Z,5.00
2019-06-25T03:28:03.601Z,5.60
2019-06-25T03:30:30.753Z,4.60
2019-06-25T03:32:57.989Z,6.33
2019-06-25T03:35:25.291Z,5.30
2019-06-25T03:37:52.226Z,5.97
2019-06-25T03:40:20.060Z,4.10
2019-06-25T03:42:47.117Z,3.70
2019-06-25T03:45:14.535Z,4.50
2019-06-25T03:47:42.532Z,5.23
2019-06-25T03:50:11.312Z,4.77
2019-06-25T03:52:38.690Z,5.17
2019-06-25T03:55:06.967Z,4.20
2019-06-25T03:57:34.925Z,4.40
2019-06-25T04:00:02.406Z,5.00
2019-06-25T04:02:30.224Z,4.47
2019-06-25T04:04:58.084Z,5.80
2019-06-25T04:07:25.432Z,4.63
2019-06-25T04:09:52.975Z,4.50
2019-06-25T04:12:19.834Z,5.03
2019-06-25T04:14:47.896Z,4.63
2019-06-25T04:17:14.790Z,8.60
2019-06-25T04:19:41.872Z,4.57
2019-06-25T04:22:09.254Z,5.13
2019-06-25T04:24:36.520Z,5.63
2019-06-25T04:27:04.599Z,5.10
2019-06-25T04:29:31.471Z,6.40
2019-06-25T04:31:59.481Z,5.97
2019-06-25T04:34:27.408Z,6.53
2019-06-25T04:36:54.248Z,4.50
2019-06-25T04:39:21.534Z,5.60
2019-06-25T04:41:48.679Z,4.40
2019-06-25T04:44:16.151Z,5.35
2019-06-25T04:46:44.662Z,4.80
2019-06-25T04:49:12.527Z,6.03
2019-06-25T04:51:39.676Z,5.83
2019-06-25T04:54:07.003Z,4.80
2019-06-25T04:56:34.305Z,5.47
2019-06-25T04:59:03.263Z,5.97
2019-06-25T05:01:32.267Z,4.53
2019-06-25T05:04:00.057Z,6.33
2019-06-25T05:06:29.160Z,4.43
2019-06-25T05:08:56.507Z,5.93
2019-06-25T05:11:23.448Z,4.73
2019-06-25T05:13:50.578Z,8.97
2019-06-25T05:16:18.204Z,8.50
2019-06-25T05:18:45.449Z,5.30
2019-06-25T05:21:14.347Z,4.20
2019-06-25T05:23:42.100Z,4.80
2019-06-25T05:26:10.215Z,5.93
2019-06-25T05:28:37.648Z,10.20
2019-06-25T05:31:05.119Z,4.80
2019-06-25T05:33:32.163Z,4.60
2019-06-25T05:36:05.448Z,4.20
2019-06-25T05:38:32.812Z,4.50
2019-06-25T05:41:00.358Z,4.50
2019-06-25T05:43:28.436Z,4.70
2019-06-25T05:45:56.412Z,4.90
2019-06-25T05:48:23.789Z,4.70
2019-06-25T05:50:51.486Z,6.03
2019-06-25T05:53:19.232Z,4.67
2019-06-25T05:55:46.529Z,5.67
2019-06-25T05:58:13.561Z,4.67
2019-06-25T06:00:40.789Z,9.00
2019-06-25T06:03:19.826Z,9.40
2019-06-25T06:05:37.007Z,4.80
2019-06-25T06:08:04.971Z,6.63
2019-06-25T06:10:32.228Z,6.57
2019-06-25T06:12:59.992Z,5.97
2019-06-25T06:15:27.883Z,7.57
2019-06-25T06:18:20.867Z,4.50
2019-06-25T06:20:47.840Z,8.20
2019-06-25T06:23:14.676Z,4.63
2019-06-25T06:25:41.636Z,4.37
2019-06-25T06:28:08.554Z,7.17
2019-06-25T06:30:36.155Z,5.80
2019-06-25T06:33:03.922Z,7.73
2019-06-25T06:35:30.903Z,4.93
2019-06-25T06:37:57.895Z,5.23
2019-06-25T06:40:25.456Z,6.87
2019-06-25T06:42:52.666Z,9.80
2019-06-25T06:45:20.077Z,5.05
2019-06-25T06:47:47.737Z,7.40
2019-06-25T06:50:15.028Z,5.77
2019-06-25T06:52:42.094Z,4.53
2019-06-25T06:55:09.340Z,6.93
2019-06-25T06:57:37.038Z,5.83
2019-06-25T07:00:05.268Z,6.07
2019-06-25T07:02:33.295Z,5.40
2019-06-25T07:05:00.352Z,7.00
2019-06-25T07:07:27.933Z,6.70
2019-06-25T07:09:55.500Z,6.57
2019-06-25T07:12:22.876Z,7.17
2019-06-25T07:14:50.888Z,7.40
2019-06-25T07:17:18.188Z,5.80
2019-06-25T07:19:46.180Z,6.80
2019-06-25T07:22:17.350Z,4.20
2019-06-25T07:24:44.702Z,4.83
2019-06-25T07:27:12.368Z,7.30
2019-06-25T07:29:40.423Z,5.00
2019-06-25T07:32:08.595Z,7.40
2019-06-25T07:34:35.460Z,7.13
2019-06-25T07:37:03.294Z,5.27
2019-06-25T07:39:31.503Z,5.15
2019-06-25T07:41:59.471Z,4.90
2019-06-25T07:44:26.811Z,5.20
2019-06-25T07:46:53.862Z,4.20
2019-06-25T07:49:21.176Z,5.50
2019-06-25T07:51:48.240Z,6.67
2019-06-25T07:54:15.943Z,6.10
2019-06-25T07:56:42.908Z,5.70
2019-06-25T07:59:10.274Z,5.93
2019-06-25T08:01:38.755Z,7.80
2019-06-25T08:04:06.085Z,7.43
2019-06-25T08:06:34.447Z,8.07
2019-06-25T08:09:02.108Z,5.13
2019-06-25T08:11:30.080Z,5.63
2019-06-25T08:13:57.158Z,6.50
2019-06-25T08:16:26.332Z,6.53
2019-06-25T08:18:53.840Z,4.63
2019-06-25T08:21:20.769Z,6.70
2019-06-25T08:23:48.587Z,6.60
2019-06-25T08:26:15.804Z,5.10
2019-06-25T08:28:44.232Z,6.50
2019-06-25T08:31:11.569Z,5.00
2019-06-25T08:33:38.748Z,5.40
2019-06-25T08:36:06.439Z,5.90
2019-06-25T08:38:33.530Z,9.13
2019-06-25T08:41:01.003Z,6.67
2019-06-25T08:43:30.307Z,6.33
2019-06-25T08:45:58.980Z,4.90
2019-06-25T08:48:25.885Z,5.97
2019-06-25T08:50:53.428Z,5.47
2019-06-25T08:53:20.301Z,5.67
2019-06-25T08:55:47.876Z,7.53
2019-06-25T08:58:15.425Z,5.33
2019-06-25T09:00:42.736Z,5.77
2019-06-25T09:03:10.283Z,7.53
2019-06-25T09:05:37.351Z,5.00
2019-06-25T09:08:05.448Z,7.43
2019-06-25T09:10:32.938Z,5.90
2019-06-25T09:13:00.400Z,8.03
2019-06-25T09:15:28.163Z,8.57
2019-06-25T09:17:55.615Z,5.97
2019-06-25T09:20:22.696Z,5.33
2019-06-25T09:22:50.796Z,5.63
2019-06-25T09:25:18.696Z,7.30
2019-06-25T09:27:46.428Z,6.13
2019-06-25T09:30:15.052Z,10.67
2019-06-25T09:32:42.141Z,6.63
2019-06-25T09:35:15.358Z,7.23
2019-06-25T09:37:39.656Z,7.47
2019-06-25T09:40:05.821Z,6.67
2019-06-25T09:42:33.159Z,5.30
2019-06-25T09:44:59.900Z,5.70
2019-06-25T09:47:27.740Z,7.90
2019-06-25T09:49:56.044Z,9.70
2019-06-25T09:52:24.420Z,9.30
2019-06-25T09:54:52.389Z,7.50
2019-06-25T09:57:19.488Z,5.87
2019-06-25T09:59:47.396Z,5.57
2019-06-25T10:02:14.347Z,5.10
2019-06-25T10:04:42.152Z,11.03
2019-06-25T10:07:09.141Z,5.40
2019-06-25T10:09:36.331Z,5.17
2019-06-25T10:12:03.576Z,6.17
2019-06-25T10:14:30.736Z,5.17
2019-06-25T10:16:58.476Z,6.30
2019-06-25T10:19:25.477Z,5.77
2019-06-25T10:21:52.823Z,5.67
2019-06-25T10:24:20.146Z,6.00
2019-06-25T10:26:48.124Z,7.90
2019-06-25T10:29:16.019Z,5.43
2019-06-25T10:31:43.417Z,6.53
2019-06-25T10:34:11.461Z,5.70
2019-06-25T10:36:39.327Z,11.20
2019-06-25T10:39:06.696Z,5.53
2019-06-25T10:41:33.576Z,7.03
2019-06-25T10:44:01.653Z,5.10
2019-06-25T10:46:30.135Z,5.30
2019-06-25T10:48:57.497Z,6.60
2019-06-25T10:51:26.176Z,5.07
2019-06-25T10:53:53.428Z,4.73
2019-06-25T10:56:20.920Z,4.87
2019-06-25T10:58:47.900Z,5.80
2019-06-25T11:01:15.283Z,7.50
2019-06-25T11:03:42.688Z,10.23
2019-06-25T11:06:10.771Z,5.87
2019-06-25T11:08:38.037Z,5.73
2019-06-25T11:11:05.133Z,5.67
2019-06-25T11:13:31.980Z,4.77
2019-06-25T11:15:59.404Z,4.60
2019-06-25T11:18:26.780Z,5.27
2019-06-25T11:20:53.839Z,5.00
2019-06-25T11:23:21.455Z,7.77
2019-06-25T11:26:09.247Z,4.80
2019-06-25T11:28:17.538Z,6.27
2019-06-25T11:30:44.533Z,8.17
2019-06-25T11:33:12.108Z,8.23
2019-06-25T11:35:39.767Z,6.10
2019-06-25T11:38:06.854Z,5.27
2019-06-25T11:40:38.020Z,8.70
2019-06-25T11:43:07.659Z,4.60
2019-06-25T11:45:34.963Z,4.50
2019-06-25T11:48:03.090Z,5.13
2019-06-25T11:50:30.868Z,5.20
2019-06-25T11:52:58.016Z,4.43
2019-06-25T11:55:25.104Z,5.27
2019-06-25T11:57:52.517Z,4.17
2019-06-25T12:00:20.403Z,4.50
2019-06-25T12:02:48.791Z,4.97
2019-06-25T12:05:15.953Z,4.23
2019-06-25T12:07:42.834Z,5.03
2019-06-25T12:10:11.557Z,4.23
2019-06-25T12:12:38.777Z,4.50
2019-06-25T12:15:06.544Z,5.53
2019-06-25T12:17:33.639Z,4.53
2019-06-25T12:20:00.820Z,3.80
2019-06-25T12:22:28.241Z,4.20
2019-06-25T12:24:55.899Z,4.50
2019-06-25T12:27:22.973Z,4.60
2019-06-25T12:29:50.230Z,4.17
2019-06-25T12:32:17.551Z,4.33
2019-06-25T12:34:45.753Z,6.10
2019-06-25T12:37:13.427Z,4.60
2019-06-25T12:39:41.311Z,4.53
2019-06-25T12:42:08.149Z,4.40
2019-06-25T12:44:35.560Z,5.00
2019-06-25T12:47:04.517Z,4.90
2019-06-25T12:49:31.407Z,5.27
2019-06-25T12:51:58.850Z,5.30
2019-06-25T12:54:26.015Z,6.10
2019-06-25T12:56:53.619Z,4.77
2019-06-25T12:59:21.284Z,4.90
2019-06-25T13:01:48.373Z,4.23
2019-06-25T13:04:15.343Z,3.50
2019-06-25T13:06:42.776Z,4.20
2019-06-25T13:09:11.410Z,5.20
2019-06-25T13:11:38.600Z,6.90
2019-06-25T13:14:06.536Z,5.40
2019-06-25T13:16:33.893Z,4.80
2019-06-25T13:19:01.245Z,5.17
2019-06-25T13:21:28.732Z,4.07
2019-06-25T13:23:56.784Z,4.73
2019-06-25T13:26:24.940Z,5.07
2019-06-25T13:28:53.559Z,4.37
2019-06-25T13:31:21.921Z,4.20
2019-06-25T13:33:50.647Z,4.43
2019-06-25T13:36:17.940Z,4.10
2019-06-25T13:38:45.423Z,3.50
2019-06-25T13:41:13.104Z,3.80
2019-06-25T13:43:40.324Z,5.23
2019-06-25T13:46:07.772Z,5.60
2019-06-25T13:48:36.284Z,4.93
2019-06-25T13:51:04.576Z,4.60
2019-06-25T13:53:31.589Z,6.33
2019-06-25T13:55:58.842Z,4.00
2019-06-25T13:58:26.255Z,5.43
2019-06-25T14:00:54.597Z,4.00
2019-06-25T14:03:22.638Z,4.50
2019-06-25T14:05:51.734Z,7.30
2019-06-25T14:08:18.752Z,6.53
2019-06-25T14:10:45.872Z,4.87
2019-06-25T14:13:14.923Z,4.27
2019-06-25T14:15:43.267Z,3.63
2019-06-25T14:18:11.699Z,4.30
2019-06-25T14:20:40.079Z,4.53
2019-06-25T14:23:07.652Z,3.60
2019-06-25T14:25:35.199Z,3.30
2019-06-25T14:28:02.790Z,3.77
2019-06-25T14:30:32.740Z,3.70
2019-06-25T14:33:00.120Z,4.00
2019-06-25T14:35:27.353Z,3.40
2019-06-25T14:37:55.303Z,3.63
2019-06-25T14:40:23.976Z,3.60
2019-06-25T14:42:51.757Z,3.90
2019-06-25T14:45:19.028Z,3.60
2019-06-25T14:47:47.307Z,3.67
2019-06-25T14:50:15.156Z,5.10
2019-06-25T14:52:42.116Z,4.37
2019-06-25T14:55:09.928Z,4.00
2019-06-25T14:57:37.544Z,4.03
2019-06-25T15:00:06.214Z,3.50
2019-06-25T15:02:33.595Z,4.30
2019-06-25T15:05:01.348Z,5.37
2019-06-25T15:07:29.695Z,3.80
2019-06-25T15:09:56.673Z,3.20
2019-06-25T15:12:24.440Z,3.47
2019-06-25T15:14:52.105Z,4.20
2019-06-25T15:17:21.071Z,3.90
2019-06-25T15:19:49.492Z,3.73
2019-06-25T15:22:16.672Z,3.77
2019-06-25T15:24:43.803Z,3.70
2019-06-25T15:27:10.887Z,3.50
2019-06-25T15:29:38.996Z,3.40
2019-06-25T15:32:06.071Z,3.90
2019-06-25T15:34:33.939Z,3.93
2019-06-25T15:37:03.208Z,4.07
2019-06-25T15:39:31.179Z,3.47
2019-06-25T15:41:59.067Z,3.57
2019-06-25T15:44:27.212Z,3.20
2019-06-25T15:46:54.079Z,3.43
2019-06-25T15:49:21.046Z,3.10
2019-06-25T15:51:48.880Z,2.90
2019-06-25T15:54:16.224Z,4.23
2019-06-25T15:56:43.387Z,3.40
2019-06-25T15:59:10.783Z,3.65
2019-06-25T16:01:37.819Z,3.40
2019-06-25T16:04:05.433Z,3.50
2019-06-25T16:06:32.484Z,3.33
2019-06-25T16:09:03.547Z,3.50
2019-06-25T16:11:28.196Z,3.43
2019-06-25T16:13:55.132Z,3.50
2019-06-25T16:16:22.352Z,3.00
2019-06-25T16:18:52.964Z,3.17
2019-06-25T16:21:19.316Z,3.60
2019-06-25T16:23:46.211Z,3.63
2019-06-25T16:26:13.279Z,2.97
2019-06-25T16:28:40.748Z,3.33
2019-06-25T16:31:07.891Z,6.20
2019-06-25T16:33:35.243Z,3.53
2019-06-25T16:36:02.193Z,3.43
2019-06-25T16:38:31.315Z,3.80
2019-06-25T16:40:59.025Z,3.67
2019-06-25T16:43:26.257Z,4.13
2019-06-25T16:46:00.307Z,3.70
2019-06-25T16:48:29.326Z,3.73
2019-06-25T16:50:56.935Z,4.10
2019-06-25T16:53:24.017Z,3.00
2019-06-25T16:55:51.416Z,3.43
2019-06-25T16:58:19.082Z,3.50
2019-06-25T17:00:46.613Z,3.13
2019-06-25T17:03:13.751Z,2.63
2019-06-25T17:05:40.797Z,3.30
2019-06-25T17:08:08.260Z,2.80
2019-06-25T17:10:36.903Z,3.27
2019-06-25T17:13:03.753Z,3.00
2019-06-25T17:15:30.909Z,5.60
2019-06-25T17:17:57.757Z,2.97
2019-06-25T17:20:24.792Z,2.77
2019-06-25T17:23:06.855Z,4.57
2019-06-25T17:25:21.139Z,13.53
2019-06-25T17:27:50.455Z,10.10
2019-06-25T17:30:20.764Z,14.50
2019-06-25T17:32:47.143Z,8.13
2019-06-25T17:35:14.415Z,8.07
2019-06-25T17:37:41.771Z,4.40
2019-06-25T17:40:11.063Z,4.40
2019-06-25T17:42:39.147Z,4.00
2019-06-25T17:45:07.185Z,4.50
2019-06-25T17:47:34.626Z,4.00
2019-06-25T17:50:01.689Z,3.63
2019-06-25T17:52:29.363Z,4.03
2019-06-25T17:54:56.375Z,3.60
2019-06-25T17:57:23.984Z,2.93
2019-06-25T17:59:50.875Z,3.25
2019-06-25T18:02:18.463Z,3.67
2019-06-25T18:04:46.522Z,3.10
2019-06-25T18:07:13.456Z,4.10
2019-06-25T18:09:41.388Z,3.57
2019-06-25T18:12:08.447Z,3.40
2019-06-25T18:14:35.736Z,3.33
2019-06-25T18:17:02.848Z,3.43
2019-06-25T18:19:30.512Z,3.10
2019-06-25T18:21:58.574Z,3.17
2019-06-25T18:24:25.732Z,3.63
2019-06-25T18:26:52.808Z,3.20
2019-06-25T18:29:21.081Z,5.07
2019-06-25T18:31:48.356Z,7.13
2019-06-25T18:34:15.978Z,10.23
2019-06-25T18:36:42.967Z,8.87
2019-06-25T18:39:10.664Z,7.10
2019-06-25T18:41:37.641Z,7.60
2019-06-25T18:44:05.051Z,6.77
2019-06-25T18:46:32.447Z,6.77
2019-06-25T18:48:59.780Z,7.27
2019-06-25T18:51:28.268Z,14.10
2019-06-25T18:53:55.879Z,8.07
2019-06-25T18:56:23.569Z,10.60
2019-06-25T18:58:50.999Z,8.77
2019-06-25T19:01:17.968Z,9.80
2019-06-25T19:03:45.241Z,8.20
2019-06-25T19:06:12.887Z,9.83
2019-06-25T19:08:41.508Z,7.70
2019-06-25T19:11:09.081Z,7.10
2019-06-25T19:13:36.477Z,11.27
2019-06-25T19:16:04.148Z,13.20
2019-06-25T19:18:31.537Z,31.70
2019-06-25T19:20:59.296Z,25.87
2019-06-25T19:23:28.683Z,17.00
2019-06-25T19:25:56.859Z,16.50
2019-06-25T19:28:24.128Z,9.53
2019-06-25T19:30:51.455Z,9.37
2019-06-25T19:33:18.531Z,10.97
2019-06-25T19:35:45.713Z,9.60
2019-06-25T19:38:15.352Z,8.23
2019-06-25T19:40:55.163Z,9.03
2019-06-25T19:43:11.244Z,7.23
2019-06-25T19:45:39.764Z,11.10
2019-06-25T19:48:07.440Z,10.30
2019-06-25T19:50:34.720Z,7.50
2019-06-25T19:53:02.088Z,13.97
2019-06-25T19:55:30.415Z,20.50
2019-06-25T19:57:58.802Z,8.17
2019-06-25T20:00:27.345Z,7.57
2019-06-25T20:02:54.695Z,7.80
2019-06-25T20:05:22.046Z,9.93
2019-06-25T20:07:50.078Z,9.93
2019-06-25T20:10:18.772Z,8.03
2019-06-25T20:12:47.000Z,8.40
2019-06-25T20:15:14.360Z,13.33
2019-06-25T20:17:41.735Z,7.20
2019-06-25T20:20:09.575Z,8.50
2019-06-25T20:22:36.776Z,7.50
2019-06-25T20:25:04.068Z,9.20
2019-06-25T20:27:31.625Z,7.60
2019-06-25T20:29:58.720Z,11.30
2019-06-25T20:32:25.687Z,6.67
2019-06-25T20:34:52.903Z,10.83
2019-06-25T20:37:21.159Z,8.50
2019-06-25T20:39:48.283Z,15.47
2019-06-25T20:42:16.159Z,8.40
2019-06-25T20:44:43.727Z,9.13
2019-06-25T20:47:11.247Z,7.20
2019-06-25T20:49:38.452Z,8.40
2019-06-25T20:52:07.426Z,7.70
2019-06-25T20:54:34.951Z,13.40
2019-06-25T20:57:02.033Z,14.10
2019-06-25T20:59:28.984Z,24.20
2019-06-25T21:01:57.448Z,15.60
2019-06-25T21:04:24.651Z,13.07
2019-06-25T21:06:51.877Z,15.37
2019-06-25T21:09:19.320Z,11.10
2019-06-25T21:11:48.726Z,9.07
2019-06-25T21:14:15.591Z,8.30
2019-06-25T21:16:42.403Z,7.20
2019-06-25T21:19:09.736Z,9.67
2019-06-25T21:21:37.348Z,8.97
2019-06-25T21:24:04.535Z,8.07
2019-06-25T21:26:31.844Z,8.63
2019-06-25T21:28:58.868Z,8.70
2019-06-25T21:31:26.349Z,7.90
2019-06-25T21:33:53.272Z,9.77
2019-06-25T21:36:20.741Z,8.23
2019-06-25T21:38:47.661Z,8.63
2019-06-25T21:41:15.575Z,9.50
2019-06-25T21:43:43.539Z,9.23
2019-06-25T21:46:10.664Z,10.83
2019-06-25T21:48:37.699Z,8.47
2019-06-25T21:51:04.623Z,8.47
2019-06-25T21:53:31.449Z,8.77
2019-06-25T21:55:59.467Z,10.47
2019-06-25T21:58:27.203Z,9.70
2019-06-25T22:00:54.731Z,9.50
2019-06-25T22:03:22.384Z,9.27
2019-06-25T22:05:49.808Z,8.00
2019-06-25T22:08:17.494Z,8.63
2019-06-25T22:10:44.921Z,7.93
2019-06-25T22:13:11.797Z,12.00
2019-06-25T22:15:40.611Z,9.17
2019-06-25T22:18:08.593Z,8.80
2019-06-25T22:20:36.992Z,10.30
2019-06-25T22:23:04.039Z,10.17
2019-06-25T22:25:32.591Z,8.63
2019-06-25T22:27:59.871Z,8.83
2019-06-25T22:30:26.787Z,7.60
2019-06-25T22:32:54.383Z,8.57
2019-06-25T22:35:21.990Z,12.40
2019-06-25T22:37:49.656Z,14.60
2019-06-25T22:40:18.483Z,17.60
2019-06-25T22:42:45.855Z,23.93
2019-06-25T22:45:13.695Z,18.50
2019-06-25T22:47:40.911Z,14.00
2019-06-25T22:50:08.776Z,12.20
2019-06-25T22:52:36.988Z,7.77
2019-06-25T22:55:04.591Z,9.47
2019-06-25T22:57:32.047Z,15.83
2019-06-25T23:00:00.441Z,9.80
2019-06-25T23:02:27.418Z,9.90
2019-06-25T23:04:54.353Z,7.33
2019-06-25T23:07:21.321Z,7.17
2019-06-25T23:09:48.673Z,7.23
2019-06-25T23:12:15.931Z,8.83
2019-06-25T23:14:42.931Z,8.40
2019-06-25T23:17:11.292Z,9.10
2019-06-25T23:19:41.439Z,9.90
2019-06-25T23:22:08.424Z,9.90
2019-06-25T23:24:35.872Z,7.43
2019-06-25T23:27:02.957Z,6.90
2019-06-25T23:29:31.371Z,11.13
2019-06-25T23:31:58.468Z,10.10
2019-06-25T23:34:26.740Z,11.53
2019-06-25T23:36:53.741Z,7.80
2019-06-25T23:39:21.967Z,7.40
2019-06-25T23:41:49.267Z,12.23
2019-06-25T23:44:16.351Z,9.10
2019-06-25T23:46:43.451Z,6.30
2019-06-25T23:49:10.584Z,6.70
2019-06-25T23:51:38.482Z,8.60
2019-06-25T23:54:06.224Z,8.57
2019-06-25T23:56:33.300Z,6.57
2019-06-25T23:59:00.215Z,13.37
